createdAt,value
2024-01-24T00:01:03.088Z,100925.56
2024-01-24T00:03:29.770Z,100913.44
2024-01-24T00:05:56.376Z,100896.31
2024-01-24T00:08:22.836Z,100906.19
2024-01-24T00:10:49.302Z,100909.66
2024-01-24T00:13:15.776Z,100903.53
2024-01-24T00:15:42.358Z,100889.00
2024-01-24T00:18:09.192Z,100889.41
2024-01-24T00:20:35.681Z,100895.47
2024-01-24T00:23:02.231Z,100896.72
2024-01-24T00:25:28.696Z,100927.66
2024-01-24T00:27:55.206Z,100944.81
2024-01-24T00:30:21.906Z,100934.00
2024-01-24T00:32:48.467Z,100893.16
2024-01-24T00:35:15.071Z,100906.00
2024-01-24T00:37:41.601Z,100924.50
2024-01-24T00:40:09.135Z,100934.94
2024-01-24T00:42:35.636Z,100914.88
2024-01-24T00:45:02.156Z,100915.75
2024-01-24T00:47:28.702Z,100890.84
2024-01-24T00:49:55.235Z,100905.56
2024-01-24T00:52:21.751Z,100901.06
2024-01-24T00:54:48.554Z,100881.00
2024-01-24T00:57:15.218Z,100875.06
2024-01-24T00:59:41.723Z,100895.00
2024-01-24T01:02:08.588Z,100874.91
2024-01-24T01:04:35.048Z,100857.13
2024-01-24T01:07:01.534Z,100846.38
2024-01-24T01:09:28.042Z,100846.78
2024-01-24T01:11:54.702Z,100826.22
2024-01-24T01:14:21.187Z,100829.81
2024-01-24T01:16:47.696Z,100805.22
2024-01-24T01:19:14.348Z,100839.47
2024-01-24T01:21:41.656Z,100805.28
2024-01-24T01:24:09.507Z,100828.16
2024-01-24T01:26:36.333Z,100828.84
2024-01-24T01:29:03.226Z,100827.66
2024-01-24T01:31:29.716Z,100797.53
2024-01-24T01:33:56.973Z,100788.91
2024-01-24T01:36:24.053Z,100829.38
2024-01-24T01:38:51.064Z,100817.53
2024-01-24T01:41:18.261Z,100812.78
2024-01-24T01:43:45.370Z,100841.00
2024-01-24T01:46:20.033Z,100826.56
2024-01-24T01:48:46.892Z,100819.25
2024-01-24T01:51:14.264Z,100846.69
2024-01-24T01:53:40.885Z,100860.22
2024-01-24T01:56:10.335Z,100843.94
2024-01-24T01:58:38.442Z,100848.59
2024-01-24T02:01:07.201Z,100833.84
2024-01-24T02:03:34.066Z,100841.72
2024-01-24T02:06:01.734Z,100811.97
2024-01-24T02:08:28.402Z,100819.44
2024-01-24T02:10:56.104Z,100821.28
2024-01-24T02:13:22.598Z,100853.78
2024-01-24T02:15:49.111Z,100831.91
2024-01-24T02:18:15.715Z,100857.91
2024-01-24T02:20:43.024Z,100866.88
2024-01-24T02:23:12.916Z,100865.13
2024-01-24T02:25:39.374Z,100845.53
2024-01-24T02:28:06.243Z,100860.56
2024-01-24T02:30:32.733Z,100818.91
2024-01-24T02:32:59.515Z,100858.84
2024-01-24T02:35:28.401Z,100857.38
2024-01-24T02:37:55.296Z,100862.47
2024-01-24T02:40:22.514Z,100827.47
2024-01-24T02:42:49.173Z,100812.84
2024-01-24T02:45:15.812Z,100834.00
2024-01-24T02:47:42.382Z,100809.09
2024-01-24T02:50:12.032Z,100845.75
2024-01-24T02:52:40.044Z,100813.38
2024-01-24T02:55:08.179Z,100811.78
2024-01-24T02:57:35.043Z,100814.13
2024-01-24T03:00:01.784Z,100821.81
2024-01-24T03:02:28.275Z,100831.16
2024-01-24T03:04:54.774Z,100831.34
2024-01-24T03:07:21.360Z,100827.31
2024-01-24T03:09:47.967Z,100847.09
2024-01-24T03:12:14.504Z,100820.34
2024-01-24T03:14:41.167Z,100804.28
2024-01-24T03:17:09.109Z,100854.25
2024-01-24T03:19:36.155Z,100840.44
2024-01-24T03:22:02.770Z,100842.50
2024-01-24T03:24:29.346Z,100874.91
2024-01-24T03:26:55.861Z,100854.06
2024-01-24T03:29:22.343Z,100832.75
2024-01-24T03:31:48.913Z,100858.22
2024-01-24T03:34:15.548Z,100869.25
2024-01-24T03:36:42.211Z,100872.84
2024-01-24T03:39:12.396Z,100877.75
2024-01-24T03:41:39.319Z,100878.00
2024-01-24T03:44:06.092Z,100875.56
2024-01-24T03:46:32.609Z,100860.91
2024-01-24T03:48:59.272Z,100851.66
2024-01-24T03:51:26.171Z,100876.06
2024-01-24T03:53:52.663Z,100881.09
2024-01-24T03:56:19.118Z,100838.03
2024-01-24T03:58:45.598Z,100852.44
2024-01-24T04:01:12.341Z,100861.75
2024-01-24T04:03:38.983Z,100868.50
2024-01-24T04:06:05.572Z,100826.22
2024-01-24T04:08:32.072Z,100860.50
2024-01-24T04:10:58.934Z,100870.28
2024-01-24T04:13:25.723Z,100853.59
2024-01-24T04:15:52.307Z,100881.59
2024-01-24T04:18:18.882Z,100857.44
2024-01-24T04:20:45.522Z,100846.50
2024-01-24T04:23:11.978Z,100873.25
2024-01-24T04:25:38.483Z,100859.50
2024-01-24T04:28:05.258Z,100869.78
2024-01-24T04:30:31.840Z,100859.81
2024-01-24T04:32:58.494Z,100886.25
2024-01-24T04:35:25.036Z,100877.38
2024-01-24T04:37:51.491Z,100865.88
2024-01-24T04:40:18.027Z,100873.19
2024-01-24T04:42:44.624Z,100864.06
2024-01-24T04:45:11.636Z,100877.88
2024-01-24T04:47:42.022Z,100891.50
2024-01-24T04:50:09.666Z,100878.97
2024-01-24T04:52:36.233Z,100889.66
2024-01-24T04:55:02.777Z,100903.50
2024-01-24T04:57:29.258Z,100937.28
2024-01-24T04:59:56.706Z,100929.59
2024-01-24T05:02:24.331Z,100932.66
2024-01-24T05:04:50.946Z,100922.25
2024-01-24T05:07:17.568Z,100940.59
2024-01-24T05:09:44.363Z,100951.25
2024-01-24T05:12:11.056Z,100954.34
2024-01-24T05:14:37.691Z,100968.91
2024-01-24T05:17:04.402Z,100947.66
2024-01-24T05:19:30.984Z,100939.47
2024-01-24T05:21:57.659Z,100950.59
2024-01-24T05:24:24.404Z,100966.31
2024-01-24T05:26:50.878Z,100966.03
2024-01-24T05:29:17.783Z,100990.47
2024-01-24T05:31:44.264Z,100965.41
2024-01-24T05:34:11.024Z,100942.06
2024-01-24T05:36:37.856Z,100943.84
2024-01-24T05:39:07.929Z,100976.19
2024-01-24T05:41:35.230Z,100979.88
2024-01-24T05:44:02.427Z,100932.31
2024-01-24T05:46:28.880Z,100973.28
2024-01-24T05:48:56.448Z,101007.25
2024-01-24T05:51:23.109Z,101002.31
2024-01-24T05:53:49.662Z,100993.66
2024-01-24T05:56:17.032Z,101009.09
2024-01-24T05:58:43.563Z,101011.66
2024-01-24T06:01:10.548Z,101013.94
2024-01-24T06:03:37.812Z,101036.22
2024-01-24T06:06:04.656Z,101040.00
2024-01-24T06:08:32.544Z,101048.47
2024-01-24T06:10:59.980Z,101036.47
2024-01-24T06:13:26.691Z,101033.44
2024-01-24T06:15:53.241Z,101033.22
2024-01-24T06:18:20.025Z,101012.94
2024-01-24T06:20:47.023Z,101037.88
2024-01-24T06:23:14.139Z,101035.91
2024-01-24T06:25:40.623Z,101071.34
2024-01-24T06:28:07.259Z,101056.19
2024-01-24T06:30:33.862Z,101072.56
2024-01-24T06:33:00.718Z,101049.84
2024-01-24T06:35:27.361Z,101063.44
2024-01-24T06:37:53.903Z,101056.47
2024-01-24T06:40:21.246Z,101036.28
2024-01-24T06:42:47.972Z,101039.25
2024-01-24T06:45:14.597Z,101082.78
2024-01-24T06:47:41.260Z,101082.19
2024-01-24T06:50:09.311Z,101092.66
2024-01-24T06:52:35.978Z,101080.31
2024-01-24T06:55:02.791Z,101078.41
2024-01-24T06:57:29.417Z,101091.22
2024-01-24T06:59:55.903Z,101082.72
2024-01-24T07:02:22.398Z,101085.03
2024-01-24T07:04:49.279Z,101105.47
2024-01-24T07:07:16.446Z,101091.59
2024-01-24T07:09:43.063Z,101103.88
2024-01-24T07:12:12.767Z,101114.09
2024-01-24T07:14:39.219Z,101111.34
2024-01-24T07:17:06.472Z,101127.88
2024-01-24T07:19:33.032Z,101102.22
2024-01-24T07:22:01.016Z,101138.19
2024-01-24T07:24:29.008Z,101109.69
2024-01-24T07:26:55.616Z,101106.06
2024-01-24T07:29:22.178Z,101080.38
2024-01-24T07:31:48.698Z,101123.41
2024-01-24T07:34:16.846Z,101140.59
2024-01-24T07:36:43.466Z,101154.81
2024-01-24T07:39:10.094Z,101164.72
2024-01-24T07:41:36.580Z,101147.66
2024-01-24T07:44:03.073Z,101147.41
2024-01-24T07:46:30.613Z,101160.75
2024-01-24T07:48:57.423Z,101159.59
2024-01-24T07:51:23.980Z,101158.91
2024-01-24T07:53:50.773Z,101176.97
2024-01-24T07:56:24.469Z,101199.63
2024-01-24T07:58:53.200Z,101199.97
2024-01-24T08:01:20.499Z,101170.34
2024-01-24T08:03:50.441Z,101184.66
2024-01-24T08:06:18.744Z,101184.09
2024-01-24T08:08:45.689Z,101195.56
2024-01-24T08:11:12.348Z,101203.66
2024-01-24T08:13:39.071Z,101214.03
2024-01-24T08:16:06.944Z,101222.16
2024-01-24T08:18:34.386Z,101239.00
2024-01-24T08:21:00.971Z,101200.53
2024-01-24T08:23:34.714Z,101229.53
2024-01-24T08:26:10.701Z,101233.53
2024-01-24T08:28:37.288Z,101206.38
2024-01-24T08:31:04.600Z,101233.75
2024-01-24T08:33:33.661Z,101217.28
2024-01-24T08:36:00.513Z,101237.31
2024-01-24T08:38:27.178Z,101239.28
2024-01-24T08:40:53.772Z,101259.63
2024-01-24T08:43:20.257Z,101254.09
2024-01-24T08:45:50.427Z,101272.91
2024-01-24T08:48:19.019Z,101265.56
2024-01-24T08:50:45.719Z,101279.69
2024-01-24T08:53:12.231Z,101287.38
2024-01-24T08:55:38.814Z,101283.25
2024-01-24T08:58:05.394Z,101276.03
2024-01-24T09:00:31.963Z,101274.31
2024-01-24T09:02:59.547Z,101283.00
2024-01-24T09:05:26.946Z,101294.50
2024-01-24T09:07:54.208Z,101297.31
2024-01-24T09:10:21.048Z,101267.94
2024-01-24T09:12:47.929Z,101306.25
2024-01-24T09:15:14.807Z,101284.47
2024-01-24T09:17:41.504Z,101333.53
2024-01-24T09:20:09.259Z,101316.72
2024-01-24T09:22:36.000Z,101303.50
2024-01-24T09:25:06.491Z,101327.50
2024-01-24T09:27:34.868Z,101324.84
2024-01-24T09:30:01.503Z,101335.91
2024-01-24T09:32:28.277Z,101329.56
2024-01-24T09:34:55.225Z,101347.38
2024-01-24T09:37:22.025Z,101335.81
2024-01-24T09:39:50.046Z,101318.38
2024-01-24T09:42:21.482Z,101369.81
2024-01-24T09:44:52.289Z,101368.44
2024-01-24T09:47:25.873Z,101369.22
2024-01-24T09:49:52.647Z,101387.22
2024-01-24T09:52:26.588Z,101386.81
2024-01-24T09:55:01.940Z,101403.28
2024-01-24T09:57:28.719Z,101376.44
2024-01-24T09:59:55.686Z,101374.41
2024-01-24T10:02:23.122Z,101389.50
2024-01-24T10:04:52.754Z,101416.38
2024-01-24T10:07:20.601Z,101392.28
2024-01-24T10:09:48.459Z,101369.22
2024-01-24T10:12:15.084Z,101405.56
2024-01-24T10:14:42.225Z,101409.59
2024-01-24T10:17:13.003Z,101411.44
2024-01-24T10:19:40.372Z,101417.88
2024-01-24T10:22:10.453Z,101405.41
2024-01-24T10:27:04.409Z,101415.91
2024-01-24T10:29:31.687Z,101423.22
2024-01-24T10:31:58.255Z,101424.34
2024-01-24T10:34:29.062Z,101422.38
2024-01-24T10:36:56.324Z,101373.34
2024-01-24T10:39:26.367Z,101401.25
2024-01-24T10:41:55.992Z,101436.47
2024-01-24T10:44:26.275Z,101450.91
2024-01-24T10:46:52.909Z,101451.28
2024-01-24T10:49:20.448Z,101430.16
2024-01-24T10:51:48.271Z,101456.94
2024-01-24T10:54:18.713Z,101427.91
2024-01-24T10:56:50.172Z,101441.31
2024-01-24T10:59:20.850Z,101487.63
2024-01-24T11:01:50.695Z,101472.19
2024-01-24T11:04:21.463Z,101483.66
2024-01-24T11:07:12.207Z,101490.38
2024-01-24T11:10:20.454Z,101502.19
2024-01-24T11:12:47.227Z,101503.53
2024-01-24T11:15:15.063Z,101507.44
2024-01-24T11:17:44.063Z,101511.97
2024-01-24T11:20:11.999Z,101503.59
2024-01-24T11:22:38.744Z,101519.44
2024-01-24T11:25:05.837Z,101531.03
2024-01-24T11:27:39.197Z,101529.16
2024-01-24T11:30:07.217Z,101549.75
2024-01-24T11:33:00.285Z,101556.00
2024-01-24T11:35:36.024Z,101544.50
2024-01-24T11:38:12.970Z,101533.88
2024-01-24T11:40:51.577Z,101552.25
2024-01-24T11:43:30.463Z,101554.09
2024-01-24T11:46:02.530Z,101537.78
2024-01-24T11:48:34.533Z,101566.59
2024-01-24T11:51:03.149Z,101585.50
2024-01-24T11:53:30.171Z,101582.47
2024-01-24T11:55:59.334Z,101581.13
2024-01-24T11:58:27.267Z,101602.69
2024-01-24T12:01:00.882Z,101598.66
2024-01-24T12:03:27.718Z,101613.47
2024-01-24T12:05:55.191Z,101617.84
2024-01-24T12:08:24.655Z,101615.00
2024-01-24T12:10:51.489Z,101611.13
2024-01-24T12:13:19.661Z,101620.22
2024-01-24T12:15:47.381Z,101632.69
2024-01-24T12:18:17.706Z,101652.91
2024-01-24T12:20:50.777Z,101626.78
2024-01-24T12:23:17.798Z,101608.59
2024-01-24T12:25:45.170Z,101643.47
2024-01-24T12:28:12.871Z,101645.00
2024-01-24T12:30:43.862Z,101612.28
2024-01-24T12:33:11.955Z,101647.84
2024-01-24T12:35:38.634Z,101664.72
2024-01-24T12:38:05.677Z,101668.75
2024-01-24T12:40:33.039Z,101682.91
2024-01-24T12:43:00.637Z,101694.41
2024-01-24T12:45:28.296Z,101691.03
2024-01-24T12:47:55.857Z,101690.84
2024-01-24T12:50:23.566Z,101687.78
2024-01-24T12:52:50.634Z,101722.72
2024-01-24T12:55:17.917Z,101723.03
2024-01-24T12:57:46.111Z,101733.16
2024-01-24T13:00:13.356Z,101735.50
2024-01-24T13:02:40.381Z,101716.97
2024-01-24T13:05:08.435Z,101730.84
2024-01-24T13:07:37.283Z,101753.03
2024-01-24T13:10:07.343Z,101734.84
2024-01-24T13:12:35.092Z,101727.41
2024-01-24T13:15:01.865Z,101708.53
2024-01-24T13:17:28.343Z,101747.50
2024-01-24T13:19:54.888Z,101750.56
2024-01-24T13:22:21.436Z,101775.28
2024-01-24T13:24:48.210Z,101759.44
2024-01-24T13:27:21.175Z,101744.41
2024-01-24T13:29:47.652Z,101789.78
2024-01-24T13:32:14.109Z,101760.78
2024-01-24T13:34:40.881Z,101792.81
2024-01-24T13:37:07.509Z,101805.31
2024-01-24T13:39:34.524Z,101787.38
2024-01-24T13:42:02.629Z,101795.16
2024-01-24T13:44:29.170Z,101780.34
2024-01-24T13:46:55.809Z,101802.06
2024-01-24T13:49:22.377Z,101811.31
2024-01-24T13:51:48.992Z,101804.81
2024-01-24T13:54:16.745Z,101769.09
2024-01-24T13:56:43.511Z,101823.00
2024-01-24T13:59:10.993Z,101815.19
2024-01-24T14:01:42.865Z,101853.28
2024-01-24T14:04:12.698Z,101832.06
2024-01-24T14:06:39.571Z,101850.00
2024-01-24T14:09:06.191Z,101862.69
2024-01-24T14:11:33.830Z,101873.97
2024-01-24T14:14:00.375Z,101874.84
2024-01-24T14:16:26.960Z,101879.34
2024-01-24T14:18:53.583Z,101899.44
2024-01-24T14:21:20.254Z,101899.31
2024-01-24T14:23:46.725Z,101917.16
2024-01-24T14:26:13.985Z,101873.28
2024-01-24T14:28:41.367Z,101933.97
2024-01-24T14:31:08.041Z,101897.91
2024-01-24T14:33:35.450Z,101931.81
2024-01-24T14:36:03.139Z,101966.25
2024-01-24T14:38:29.732Z,101943.25
2024-01-24T14:40:56.442Z,101948.31
2024-01-24T14:43:22.918Z,101951.88
2024-01-24T14:45:49.491Z,101961.16
2024-01-24T14:48:16.095Z,101968.59
2024-01-24T14:50:44.017Z,101994.69
2024-01-24T14:53:10.718Z,101982.19
2024-01-24T14:55:37.257Z,101976.25
2024-01-24T14:58:03.852Z,101999.63
2024-01-24T15:00:30.420Z,101977.66
2024-01-24T15:02:57.490Z,101971.63
2024-01-24T15:05:25.240Z,102006.19
2024-01-24T15:07:52.434Z,102021.25
2024-01-24T15:10:19.677Z,102018.97
2024-01-24T15:12:46.327Z,102032.13
2024-01-24T15:15:12.935Z,102028.50
2024-01-24T15:17:39.517Z,102038.94
2024-01-24T15:20:06.885Z,102044.19
2024-01-24T15:22:34.194Z,102033.06
2024-01-24T15:25:01.648Z,102038.00
2024-01-24T15:27:28.934Z,102028.88
2024-01-24T15:29:56.205Z,102047.53
2024-01-24T15:32:22.819Z,102057.03
2024-01-24T15:34:49.420Z,102052.38
2024-01-24T15:37:17.156Z,102066.63
2024-01-24T15:39:48.718Z,102066.81
2024-01-24T15:42:20.047Z,102068.00
2024-01-24T15:44:47.891Z,102083.31
2024-01-24T15:47:16.028Z,102067.53
2024-01-24T15:49:44.556Z,102081.84
2024-01-24T15:52:14.650Z,102064.28
2024-01-24T15:54:42.385Z,102101.25
2024-01-24T15:57:08.880Z,102106.00
2024-01-24T15:59:35.431Z,102119.00
2024-01-24T16:02:02.649Z,102124.38
2024-01-24T16:04:29.846Z,102125.00
2024-01-24T16:06:57.302Z,102139.16
2024-01-24T16:09:25.855Z,102126.56
2024-01-24T16:11:52.751Z,102147.22
2024-01-24T16:14:26.899Z,102148.94
2024-01-24T16:16:55.704Z,102133.78
2024-01-24T16:19:23.231Z,102162.69
2024-01-24T16:21:53.165Z,102148.97
2024-01-24T16:24:19.830Z,102128.03
2024-01-24T16:26:47.151Z,102171.31
2024-01-24T16:29:15.257Z,102165.22
2024-01-24T16:31:42.075Z,102164.22
2024-01-24T16:34:08.817Z,102175.09
2024-01-24T16:36:35.649Z,102178.25
2024-01-24T16:39:02.230Z,102188.72
2024-01-24T16:41:28.687Z,102191.97
2024-01-24T16:43:55.232Z,102190.81
2024-01-24T16:46:21.663Z,102185.59
2024-01-24T16:48:48.227Z,102177.69
2024-01-24T16:51:14.851Z,102191.41
2024-01-24T16:53:41.532Z,102213.34
2024-01-24T16:56:11.125Z,102216.44
2024-01-24T16:58:37.855Z,102222.66
2024-01-24T17:01:05.145Z,102212.50
2024-01-24T17:03:32.008Z,102221.38
2024-01-24T17:05:58.716Z,102237.25
2024-01-24T17:08:25.325Z,102237.09
2024-01-24T17:10:52.400Z,102227.63
2024-01-24T17:13:18.848Z,102242.47
2024-01-24T17:15:45.963Z,102243.44
2024-01-24T17:18:12.906Z,102246.69
2024-01-24T17:20:39.809Z,102245.81
2024-01-24T17:23:06.311Z,102262.06
2024-01-24T17:25:32.824Z,102258.09
2024-01-24T17:27:59.457Z,102265.06
2024-01-24T17:30:26.068Z,102260.81
2024-01-24T17:32:52.790Z,102269.69
2024-01-24T17:35:19.289Z,102272.25
2024-01-24T17:37:45.859Z,102278.47
2024-01-24T17:40:12.928Z,102277.09
2024-01-24T17:42:40.265Z,102272.94
2024-01-24T17:45:07.436Z,102277.59
2024-01-24T17:47:35.566Z,102293.44
2024-01-24T17:50:03.473Z,102272.84
2024-01-24T17:52:30.161Z,102274.53
2024-01-24T17:55:02.432Z,102307.72
2024-01-24T17:57:29.232Z,102307.31
2024-01-24T17:59:56.279Z,102313.34
2024-01-24T18:02:23.092Z,102313.03
2024-01-24T18:04:49.878Z,102305.72
2024-01-24T18:07:16.519Z,102326.47
2024-01-24T18:09:43.602Z,102328.34
2024-01-24T18:12:11.281Z,102329.53
2024-01-24T18:14:38.169Z,102332.22
2024-01-24T18:17:04.814Z,102342.09
2024-01-24T18:19:33.161Z,102354.78
2024-01-24T18:21:59.875Z,102348.81
2024-01-24T18:24:26.395Z,102351.25
2024-01-24T18:26:53.784Z,102345.88
2024-01-24T18:29:20.321Z,102349.19
2024-01-24T18:31:46.965Z,102347.81
2024-01-24T18:34:13.667Z,102356.84
2024-01-24T18:36:40.493Z,102365.91
2024-01-24T18:39:06.996Z,102361.44
2024-01-24T18:41:33.469Z,102355.91
2024-01-24T18:43:59.947Z,102347.81
2024-01-24T18:46:28.345Z,102354.22
2024-01-24T18:48:55.192Z,102353.81
2024-01-24T18:51:21.967Z,102344.91
2024-01-24T18:53:48.436Z,102334.84
2024-01-24T18:56:16.017Z,102355.22
2024-01-24T18:58:42.665Z,102350.50
2024-01-24T19:01:09.591Z,102361.44
2024-01-24T19:03:36.354Z,102357.50
2024-01-24T19:06:03.336Z,102376.50
2024-01-24T19:08:33.648Z,102386.72
2024-01-24T19:11:04.603Z,102379.94
2024-01-24T19:13:31.632Z,102393.97
2024-01-24T19:15:59.077Z,102377.09
2024-01-24T19:18:26.066Z,102401.13
2024-01-24T19:20:52.653Z,102394.63
2024-01-24T19:23:19.124Z,102403.56
2024-01-24T19:25:45.661Z,102394.50
2024-01-24T19:28:12.218Z,102383.97
2024-01-24T19:30:38.806Z,102362.25
2024-01-24T19:33:05.835Z,102398.97
2024-01-24T19:35:33.801Z,102386.31
2024-01-24T19:38:00.271Z,102412.19
2024-01-24T19:40:26.817Z,102415.13
2024-01-24T19:42:55.214Z,102408.25
2024-01-24T19:45:21.781Z,102404.16
2024-01-24T19:47:49.090Z,102414.69
2024-01-24T19:50:15.707Z,102399.34
2024-01-24T19:52:42.175Z,102394.91
2024-01-24T19:55:09.592Z,102407.41
2024-01-24T19:57:36.356Z,102401.59
2024-01-24T20:00:03.161Z,102418.22
2024-01-24T20:02:29.795Z,102422.44
2024-01-24T20:04:56.859Z,102411.72
2024-01-24T20:07:23.478Z,102415.13
2024-01-24T20:09:51.545Z,102412.44
2024-01-24T20:12:18.169Z,102402.09
2024-01-24T20:14:44.587Z,102421.81
2024-01-24T20:17:11.199Z,102419.78
2024-01-24T20:19:38.081Z,102417.63
2024-01-24T20:22:05.503Z,102409.88
2024-01-24T20:24:32.120Z,102410.69
2024-01-24T20:26:58.570Z,102413.56
2024-01-24T20:29:25.913Z,102411.88
2024-01-24T20:31:52.498Z,102411.28
2024-01-24T20:34:19.105Z,102419.00
2024-01-24T20:36:45.792Z,102414.06
2024-01-24T20:39:12.834Z,102420.50
2024-01-24T20:41:39.321Z,102410.81
2024-01-24T20:44:05.775Z,102428.34
2024-01-24T20:46:33.079Z,102423.25
2024-01-24T20:48:59.791Z,102421.09
2024-01-24T20:51:26.952Z,102418.22
2024-01-24T20:53:53.625Z,102419.53
2024-01-24T20:56:20.042Z,102412.59
2024-01-24T20:58:46.457Z,102427.41
2024-01-24T21:01:13.310Z,102428.50
2024-01-24T21:03:41.578Z,102431.84
2024-01-24T21:06:08.322Z,102395.84
2024-01-24T21:08:34.954Z,102429.41
2024-01-24T21:11:03.820Z,102436.22
2024-01-24T21:13:31.110Z,102426.72
2024-01-24T21:15:57.858Z,102429.41
2024-01-24T21:18:27.090Z,102441.53
2024-01-24T21:20:53.936Z,102440.47
2024-01-24T21:23:20.571Z,102447.56
2024-01-24T21:25:47.041Z,102458.69
2024-01-24T21:28:13.629Z,102451.38
2024-01-24T21:30:40.202Z,102452.91
2024-01-24T21:33:06.688Z,102455.78
2024-01-24T21:35:33.122Z,102452.28
2024-01-24T21:37:59.557Z,102457.25
2024-01-24T21:40:26.128Z,102462.22
2024-01-24T21:42:52.749Z,102459.19
2024-01-24T21:45:19.387Z,102461.81
2024-01-24T21:47:46.145Z,102458.81
2024-01-24T21:50:12.929Z,102462.28
2024-01-24T21:52:39.501Z,102469.53
2024-01-24T21:55:07.266Z,102478.63
2024-01-24T21:57:34.036Z,102474.28
2024-01-24T22:00:00.543Z,102490.63
2024-01-24T22:02:27.012Z,102489.47
2024-01-24T22:04:53.501Z,102485.88
2024-01-24T22:07:20.131Z,102493.00
2024-01-24T22:09:49.613Z,102494.38
2024-01-24T22:12:17.394Z,102495.16
2024-01-24T22:14:43.901Z,102500.59
2024-01-24T22:17:10.826Z,102503.19
2024-01-24T22:19:37.431Z,102509.44
2024-01-24T22:22:04.403Z,102509.94
2024-01-24T22:24:30.977Z,102515.44
2024-01-24T22:26:57.844Z,102520.09
2024-01-24T22:29:24.462Z,102521.47
2024-01-24T22:31:50.926Z,102491.28
2024-01-24T22:34:17.835Z,102490.19
2024-01-24T22:36:45.303Z,102490.03
2024-01-24T22:39:14.385Z,102528.34
2024-01-24T22:41:42.554Z,102517.81
2024-01-24T22:44:10.860Z,102521.13
2024-01-24T22:46:40.824Z,102520.28
2024-01-24T22:49:07.970Z,102507.00
2024-01-24T22:51:36.456Z,102508.84
2024-01-24T22:54:03.522Z,102498.66
2024-01-24T22:56:31.213Z,102499.75
2024-01-24T22:58:57.971Z,102524.22
2024-01-24T23:01:24.697Z,102533.06
2024-01-24T23:03:51.431Z,102529.59
2024-01-24T23:06:18.613Z,102527.19
2024-01-24T23:08:45.110Z,102531.78
2024-01-24T23:11:12.892Z,102532.75
2024-01-24T23:13:41.348Z,102531.44
2024-01-24T23:16:08.574Z,102543.06
2024-01-24T23:18:35.192Z,102541.34
2024-01-24T23:21:01.775Z,102538.66
2024-01-24T23:23:28.249Z,102546.06
2024-01-24T23:25:54.710Z,102536.19
2024-01-24T23:28:21.332Z,102551.97
2024-01-24T23:30:47.928Z,102549.84
2024-01-24T23:33:14.591Z,102566.31
2024-01-24T23:35:41.223Z,102566.78
2024-01-24T23:38:07.739Z,102539.31
2024-01-24T23:40:34.202Z,102570.00
2024-01-24T23:43:00.773Z,102571.31
2024-01-24T23:45:28.210Z,102571.16
2024-01-24T23:47:54.928Z,102575.44
2024-01-24T23:50:21.969Z,102575.59
2024-01-24T23:52:48.912Z,102587.53
2024-01-24T23:55:16.279Z,102585.94
2024-01-24T23:57:42.869Z,102589.53
